Time,TemperatureF,DewpointF,PressureIn,WindDirection,WindDirectionDegrees,WindSpeedMPH,WindSpeedGustMPH,Humidity,HourlyPrecipIn,Conditions,Clouds,dailyrainin,SoftwareType,DateUTC
2013-02-07 08:30:00,-1.8,-7.3,29.59,NNW,343,0.0,44.0,77,0.00,,,0.00,Wunderground v.1.13,2013-02-07 17:30:00,
2013-02-07 08:35:00,-1.4,-6.9,29.59,NNW,346,1.0,44.0,77,0.00,,,0.00,Wunderground v.1.13,2013-02-07 17:35:00,
2013-02-07 08:40:00,-1.6,-7.1,29.59,NNW,346,0.0,44.0,77,0.00,,,0.00,Wunderground v.1.13,2013-02-07 17:40:00,
2013-02-07 08:45:00,-2.2,-7.9,29.59,NNW,338,0.0,44.0,76,0.00,,,0.00,Wunderground v.1.13,2013-02-07 17:45:00,
2013-02-07 08:55:00,-3.7,-9.6,29.57,NW,325,0.0,44.0,75,0.00,,,0.00,Wunderground v.1.13,2013-02-07 17:55:00,
2013-02-07 09:00:00,-3.9,-9.8,29.57,NNW,336,0.0,44.0,75,0.00,,,0.00,Wunderground v.1.13,2013-02-07 18:00:00,
2013-02-07 09:10:00,-3.1,-8.8,29.57,North,10,0.0,44.0,76,0.00,,,0.00,Wunderground v.1.13,2013-02-07 18:10:00,
2013-02-07 09:15:00,-2.6,-8.3,29.57,NNW,342,0.0,44.0,76,0.00,,,0.00,Wunderground v.1.13,2013-02-07 18:15:00,
2013-02-07 09:20:00,-2.8,-8.5,29.56,NNW,330,0.0,44.0,76,0.00,,,0.00,Wunderground v.1.13,2013-02-07 18:20:00,
2013-02-07 09:25:00,-3.5,-9.4,29.56,NNW,338,0.0,44.0,75,0.00,,,0.00,Wunderground v.1.13,2013-02-07 18:25:00,
2013-02-07 09:35:00,-3.5,-9.4,29.56,NNW,343,0.0,44.0,75,0.00,,,0.00,Wunderground v.1.13,2013-02-07 18:35:00,
2013-02-07 09:40:00,-3.1,-8.8,29.56,NNW,333,0.0,44.0,76,0.00,,,0.00,Wunderground v.1.13,2013-02-07 18:40:00,
2013-02-07 09:50:00,-2.4,-8.1,29.55,North,355,0.0,44.0,76,0.00,,,0.00,Wunderground v.1.13,2013-02-07 18:50:00,
2013-02-07 09:55:00,-2.4,-8.1,29.55,NW,319,0.0,44.0,76,0.00,,,0.00,Wunderground v.1.13,2013-02-07 18:55:00,
2013-02-07 10:10:00,-2.0,-7.7,29.54,NNW,342,0.0,44.0,76,0.00,,,0.00,Wunderground v.1.13,2013-02-07 19:10:00,
2013-02-07 10:15:00,-2.2,-7.9,29.54,NNW,342,0.0,44.0,76,0.00,,,0.00,Wunderground v.1.13,2013-02-07 19:15:00,
2013-02-07 10:20:00,-2.2,-7.9,29.54,NNW,342,0.0,44.0,76,0.00,,,0.00,Wunderground v.1.13,2013-02-07 19:20:00,
2013-02-07 10:30:00,-1.8,-7.3,29.54,NNW,347,0.0,44.0,77,0.00,,,0.00,Wunderground v.1.13,2013-02-07 19:30:00,
2013-02-07 10:35:00,-2.0,-7.7,29.53,NNW,333,0.0,44.0,76,0.00,,,0.00,Wunderground v.1.13,2013-02-07 19:35:00,
2013-02-07 10:40:00,-2.2,-7.9,29.53,NNW,333,0.0,44.0,76,0.00,,,0.00,Wunderground v.1.13,2013-02-07 19:40:00,
2013-02-07 10:50:00,-2.6,-8.3,29.53,NNW,333,0.0,44.0,76,0.00,,,0.00,Wunderground v.1.13,2013-02-07 19:50:00,
2013-02-07 10:55:00,-3.1,-8.8,29.53,NNW,333,0.0,44.0,76,0.00,,,0.00,Wunderground v.1.13,2013-02-07 19:55:00,
2013-02-07 11:00:00,-2.8,-8.5,29.53,NNW,333,0.0,44.0,76,0.00,,,0.00,Wunderground v.1.13,2013-02-07 20:00:00,
2013-02-07 11:10:00,-0.8,-6.3,29.52,North,355,0.0,44.0,77,0.00,,,0.00,Wunderground v.1.13,2013-02-07 20:10:00,
2013-02-07 11:15:00,-0.8,-6.3,29.52,NNE,18,0.0,44.0,77,0.00,,,0.00,Wunderground v.1.13,2013-02-07 20:15:00,
2013-02-07 11:20:00,-0.6,-6.1,29.51,NNW,348,0.0,44.0,77,0.00,,,0.00,Wunderground v.1.13,2013-02-07 20:20:00,
2013-02-07 11:25:00,-0.2,-5.7,29.51,NNW,344,0.0,44.0,77,0.00,,,0.00,Wunderground v.1.13,2013-02-07 20:25:00,
2013-02-07 11:35:00,-0.4,-5.9,29.50,NNW,343,0.0,44.0,77,0.00,,,0.00,Wunderground v.1.13,2013-02-07 20:35:00,
2013-02-07 11:40:00,-0.4,-5.9,29.50,NNW,345,0.0,44.0,77,0.00,,,0.00,Wunderground v.1.13,2013-02-07 20:40:00,
2013-02-07 11:45:00,-0.2,-5.4,29.50,NNW,345,0.0,44.0,78,0.00,,,0.00,Wunderground v.1.13,2013-02-07 20:45:00,
2013-02-07 11:55:00,0.1,-5.1,29.50,NNW,345,0.0,44.0,78,0.00,,,0.00,Wunderground v.1.13,2013-02-07 20:55:00,
2013-02-07 12:00:00,0.5,-4.7,29.50,NNW,345,0.0,44.0,78,0.00,,,0.00,Wunderground v.1.13,2013-02-07 21:00:00,
2013-02-07 12:10:00,0.9,-4.4,29.50,NNW,345,0.0,44.0,78,0.00,,,0.00,Wunderground v.1.13,2013-02-07 21:10:00,
2013-02-07 12:20:00,0.9,-4.4,29.49,NNW,345,0.0,44.0,78,0.00,,,0.00,Wunderground v.1.13,2013-02-07 21:20:00,
2013-02-07 12:25:00,0.9,-4.4,29.49,NNW,345,0.0,44.0,78,0.00,,,0.00,Wunderground v.1.13,2013-02-07 21:25:00,
2013-02-07 12:35:00,1.1,-4.2,29.48,NNW,345,0.0,44.0,78,0.00,,,0.00,Wunderground v.1.13,2013-02-07 21:35:00,
2013-02-07 12:40:00,1.1,-4.2,29.48,WNW,290,0.0,44.0,78,0.00,,,0.00,Wunderground v.1.13,2013-02-07 21:40:00,
2013-02-07 12:45:00,1.3,-4.0,29.48,WNW,290,0.0,44.0,78,0.00,,,0.00,Wunderground v.1.13,2013-02-07 21:45:00,
2013-02-07 12:50:00,1.3,-4.0,29.47,WNW,294,0.0,44.0,78,0.00,,,0.00,Wunderground v.1.13,2013-02-07 21:50:00,
2013-02-07 13:00:00,1.1,-4.2,29.47,WNW,294,0.0,44.0,78,0.00,,,0.00,Wunderground v.1.13,2013-02-07 22:00:00,
2013-02-07 13:10:00,0.7,-4.6,29.46,NNW,331,0.0,44.0,78,0.00,,,0.00,Wunderground v.1.13,2013-02-07 22:10:00,
2013-02-07 13:15:00,0.5,-4.7,29.46,NNW,333,0.0,44.0,78,0.00,,,0.00,Wunderground v.1.13,2013-02-07 22:15:00,
2013-02-07 13:20:00,0.9,-4.4,29.46,NNW,333,0.0,44.0,78,0.00,,,0.00,Wunderground v.1.13,2013-02-07 22:20:00,
2013-02-07 13:25:00,0.7,-4.6,29.46,NNW,333,0.0,44.0,78,0.00,,,0.00,Wunderground v.1.13,2013-02-07 22:25:00,
2013-02-07 13:35:00,0.9,-4.4,29.46,NNW,333,0.0,44.0,78,0.00,,,0.00,Wunderground v.1.13,2013-02-07 22:35:00,
2013-02-07 13:40:00,1.3,-3.7,29.46,NNW,333,0.0,44.0,79,0.00,,,0.00,Wunderground v.1.13,2013-02-07 22:40:00,
2013-02-07 13:50:00,2.2,-2.8,29.45,NNW,337,0.0,44.0,79,0.00,,,0.00,Wunderground v.1.13,2013-02-07 22:50:00,
2013-02-07 13:55:00,2.8,-2.2,29.45,NNW,337,0.0,44.0,79,0.00,,,0.00,Wunderground v.1.13,2013-02-07 22:55:00,
2013-02-07 14:00:00,3.2,-1.8,29.45,NNW,337,0.0,44.0,79,0.00,,,0.00,Wunderground v.1.13,2013-02-07 23:00:00,
2013-02-07 14:10:00,3.4,-1.7,29.44,North,5,0.0,44.0,79,0.00,,,0.00,Wunderground v.1.13,2013-02-07 23:10:00,
2013-02-07 14:15:00,3.4,-1.7,29.44,North,5,0.0,44.0,79,0.00,,,0.00,Wunderground v.1.13,2013-02-07 23:15:00,
2013-02-07 14:20:00,3.5,-1.3,29.44,NW,321,0.0,44.0,80,0.00,,,0.00,Wunderground v.1.13,2013-02-07 23:20:00,
2013-02-07 14:25:00,3.7,-1.1,29.44,North,350,0.0,44.0,80,0.00,,,0.00,Wunderground v.1.13,2013-02-07 23:25:00,
2013-02-07 14:35:00,3.7,-1.1,29.44,NW,316,0.0,44.0,80,0.00,,,0.00,Wunderground v.1.13,2013-02-07 23:35:00,
2013-02-07 14:40:00,3.2,-1.8,29.44,NW,316,0.0,44.0,79,0.00,,,0.00,Wunderground v.1.13,2013-02-07 23:40:00,
2013-02-07 14:45:00,2.6,-2.4,29.44,NW,316,0.0,44.0,79,0.00,,,0.00,Wunderground v.1.13,2013-02-07 23:45:00,
2013-02-07 14:50:00,2.4,-2.6,29.43,NW,316,0.0,44.0,79,0.00,,,0.00,Wunderground v.1.13,2013-02-07 23:50:00,
2013-02-07 15:00:00,2.6,-2.4,29.43,NW,317,0.0,44.0,79,0.00,,,0.00,Wunderground v.1.13,2013-02-08 00:00:00,
2013-02-07 15:10:00,3.0,-2.0,29.43,NW,317,0.0,44.0,79,0.00,,,0.00,Wunderground v.1.13,2013-02-08 00:10:00,
2013-02-07 15:15:00,3.2,-1.8,29.43,NW,317,0.0,44.0,79,0.00,,,0.00,Wunderground v.1.13,2013-02-08 00:15:00,
2013-02-07 15:25:00,3.4,-1.7,29.43,North,350,0.0,44.0,79,0.00,,,0.00,Wunderground v.1.13,2013-02-08 00:25:00,
2013-02-07 15:30:00,3.4,-1.7,29.43,North,350,0.0,44.0,79,0.00,,,0.00,Wunderground v.1.13,2013-02-08 00:30:00,
2013-02-07 15:35:00,3.5,-1.3,29.42,North,350,0.0,44.0,80,0.00,,,0.00,Wunderground v.1.13,2013-02-08 00:35:00,
2013-02-07 15:45:00,4.3,-0.5,29.42,NNW,348,0.0,44.0,80,0.00,,,0.00,Wunderground v.1.13,2013-02-08 00:45:00,
2013-02-07 15:50:00,4.5,-0.3,29.41,NNW,348,0.0,44.0,80,0.00,,,0.00,Wunderground v.1.13,2013-02-08 00:50:00,
2013-02-07 15:55:00,4.7,-0.1,29.41,NNW,348,0.0,44.0,80,0.00,,,0.00,Wunderground v.1.13,2013-02-08 00:55:00,
2013-02-07 16:10:00,4.7,-0.1,29.41,NNW,341,0.0,44.0,80,0.00,,,0.00,Wunderground v.1.13,2013-02-08 01:10:00,
2013-02-07 16:20:00,4.5,-0.3,29.41,North,360,0.0,44.0,80,0.00,,,0.00,Wunderground v.1.13,2013-02-08 01:20:00,
2013-02-07 16:25:00,3.9,-0.9,29.41,North,360,0.0,44.0,80,0.00,,,0.00,Wunderground v.1.13,2013-02-08 01:25:00,
2013-02-07 16:30:00,3.7,-1.1,29.41,North,360,0.0,44.0,80,0.00,,,0.00,Wunderground v.1.13,2013-02-08 01:30:00,
2013-02-07 16:40:00,4.7,-0.1,29.40,NNW,345,0.0,44.0,80,0.00,,,0.00,Wunderground v.1.13,2013-02-08 01:40:00,
2013-02-07 16:45:00,4.7,-0.1,29.40,NNW,345,0.0,44.0,80,0.00,,,0.00,Wunderground v.1.13,2013-02-08 01:45:00,
2013-02-07 16:50:00,4.7,-0.1,29.40,NNW,342,0.0,44.0,80,0.00,,,0.00,Wunderground v.1.13,2013-02-08 01:50:00,
2013-02-07 17:00:00,4.5,-0.3,29.40,NNW,342,0.0,44.0,80,0.00,,,0.00,Wunderground v.1.13,2013-02-08 02:00:00,
2013-02-07 17:10:00,4.5,-0.3,29.40,NNW,342,0.0,44.0,80,0.00,,,0.00,Wunderground v.1.13,2013-02-08 02:10:00,
2013-02-07 17:15:00,4.5,-0.3,29.40,NNW,342,0.0,44.0,80,0.00,,,0.00,Wunderground v.1.13,2013-02-08 02:15:00,
2013-02-07 17:25:00,5.0,0.4,29.40,NNW,342,0.0,44.0,81,0.00,,,0.00,Wunderground v.1.13,2013-02-08 02:25:00,
2013-02-07 17:30:00,5.4,0.8,29.40,NNW,342,0.0,44.0,81,0.00,,,0.00,Wunderground v.1.13,2013-02-08 02:30:00,
2013-02-07 17:40:00,6.5,2.2,29.40,NNW,342,0.0,44.0,82,0.00,,,0.00,Wunderground v.1.13,2013-02-08 02:40:00,
2013-02-07 17:45:00,7.2,2.9,29.40,NE,36,0.0,44.0,82,0.00,,,0.00,Wunderground v.1.13,2013-02-08 02:45:00,
2013-02-07 17:50:00,7.6,3.3,29.40,NE,36,0.0,44.0,82,0.00,,,0.00,Wunderground v.1.13,2013-02-08 02:50:00,
2013-02-07 17:55:00,7.7,3.4,29.40,NE,36,0.0,44.0,82,0.00,,,0.00,Wunderground v.1.13,2013-02-08 02:55:00,
2013-02-07 18:10:00,8.3,3.9,29.39,North,5,0.0,44.0,82,0.00,,,0.00,Wunderground v.1.13,2013-02-08 03:10:00,
2013-02-07 18:20:00,8.1,3.7,29.39,NNW,328,0.0,44.0,82,0.00,,,0.00,Wunderground v.1.13,2013-02-08 03:20:00,
2013-02-07 18:25:00,7.6,3.3,29.39,NNW,328,0.0,44.0,82,0.00,,,0.00,Wunderground v.1.13,2013-02-08 03:25:00,
2013-02-07 18:30:00,7.0,2.7,29.39,NNW,328,0.0,44.0,82,0.00,,,0.00,Wunderground v.1.13,2013-02-08 03:30:00,
2013-02-07 18:40:00,6.9,2.6,29.39,NNW,328,0.0,44.0,82,0.00,,,0.00,Wunderground v.1.13,2013-02-08 03:40:00,
2013-02-07 18:45:00,6.9,2.6,29.39,NNW,328,0.0,44.0,82,0.00,,,0.00,Wunderground v.1.13,2013-02-08 03:45:00,
2013-02-07 18:50:00,7.0,2.7,29.39,NNW,328,0.0,44.0,82,0.00,,,0.00,Wunderground v.1.13,2013-02-08 03:50:00,
2013-02-07 19:00:00,7.2,2.9,29.39,NNW,328,0.0,44.0,82,0.00,,,0.00,Wunderground v.1.13,2013-02-08 04:00:00,
2013-02-07 19:10:00,7.6,3.3,29.39,NNW,328,0.0,44.0,82,0.00,,,0.00,Wunderground v.1.13,2013-02-08 04:10:00,
2013-02-07 19:15:00,7.7,3.4,29.39,WNW,302,0.0,44.0,82,0.00,,,0.00,Wunderground v.1.13,2013-02-08 04:15:00,
2013-02-07 19:25:00,7.9,3.5,29.39,West,280,0.0,44.0,82,0.00,,,0.00,Wunderground v.1.13,2013-02-08 04:25:00,
2013-02-07 19:30:00,7.9,3.5,29.39,WNW,296,0.0,44.0,82,0.00,,,0.00,Wunderground v.1.13,2013-02-08 04:30:00,
2013-02-07 19:35:00,7.7,3.4,29.39,West,278,0.0,44.0,82,0.00,,,0.00,Wunderground v.1.13,2013-02-08 04:35:00,
2013-02-07 19:45:00,7.6,3.3,29.39,WNW,298,0.0,44.0,82,0.00,,,0.00,Wunderground v.1.13,2013-02-08 04:45:00,
2013-02-07 19:50:00,7.6,3.3,29.38,WNW,298,0.0,44.0,82,0.00,,,0.00,Wunderground v.1.13,2013-02-08 04:50:00,
2013-02-07 19:55:00,7.6,3.3,29.38,WNW,298,0.0,44.0,82,0.00,,,0.00,Wunderground v.1.13,2013-02-08 04:55:00,
2013-02-07 20:10:00,7.6,3.3,29.38,WNW,298,0.0,44.0,82,0.00,,,0.00,Wunderground v.1.13,2013-02-08 05:10:00,
2013-02-07 20:15:00,7.6,3.3,29.38,WNW,298,0.0,44.0,82,0.00,,,0.00,Wunderground v.1.13,2013-02-08 05:15:00,
2013-02-07 20:25:00,7.2,2.9,29.37,WNW,302,0.0,44.0,82,0.00,,,0.00,Wunderground v.1.13,2013-02-08 05:25:00,
2013-02-07 20:30:00,7.2,2.9,29.37,NW,305,0.0,44.0,82,0.00,,,0.00,Wunderground v.1.13,2013-02-08 05:30:00,
2013-02-07 20:35:00,7.2,2.9,29.37,NW,305,0.0,44.0,82,0.00,,,0.00,Wunderground v.1.13,2013-02-08 05:35:00,
2013-02-07 20:40:00,7.2,2.9,29.37,NW,305,0.0,44.0,82,0.00,,,0.00,Wunderground v.1.13,2013-02-08 05:40:00,
2013-02-07 20:50:00,7.7,3.4,29.38,SSW,198,0.0,44.0,82,0.00,,,0.00,Wunderground v.1.13,2013-02-08 05:50:00,
2013-02-07 20:55:00,8.4,4.0,29.38,South,176,0.0,44.0,82,0.00,,,0.00,Wunderground v.1.13,2013-02-08 05:55:00,
2013-02-07 21:10:00,8.4,4.0,29.38,SSE,151,0.0,44.0,82,0.00,,,0.00,Wunderground v.1.13,2013-02-08 06:10:00,
2013-02-07 21:15:00,8.3,3.9,29.38,SSE,166,0.0,44.0,82,0.00,,,0.00,Wunderground v.1.13,2013-02-08 06:15:00,
2013-02-07 21:20:00,8.1,3.7,29.39,SSE,166,0.0,44.0,82,0.00,,,0.00,Wunderground v.1.13,2013-02-08 06:20:00,
2013-02-07 21:25:00,8.1,3.7,29.39,SSE,166,0.0,44.0,82,0.00,,,0.00,Wunderground v.1.13,2013-02-08 06:25:00,
2013-02-07 21:35:00,8.3,3.9,29.38,SSE,166,0.0,44.0,82,0.00,,,0.00,Wunderground v.1.13,2013-02-08 06:35:00,
2013-02-07 21:45:00,7.9,3.5,29.38,SSE,166,0.0,44.0,82,0.00,,,0.00,Wunderground v.1.13,2013-02-08 06:45:00,
2013-02-07 21:55:00,7.7,3.4,29.38,SSE,166,0.0,44.0,82,0.00,,,0.00,Wunderground v.1.13,2013-02-08 06:55:00,
2013-02-07 22:10:00,7.9,3.5,29.38,SSE,167,0.0,44.0,82,0.00,,,0.00,Wunderground v.1.13,2013-02-08 07:10:00,
2013-02-07 22:15:00,7.6,3.3,29.38,SSW,207,0.0,44.0,82,0.00,,,0.00,Wunderground v.1.13,2013-02-08 07:15:00,
2013-02-07 22:25:00,6.9,2.6,29.39,SSW,210,0.0,44.0,82,0.00,,,0.00,Wunderground v.1.13,2013-02-08 07:25:00,
2013-02-07 22:30:00,6.7,2.1,29.39,WSW,242,0.0,44.0,81,0.00,,,0.00,Wunderground v.1.13,2013-02-08 07:30:00,
2013-02-07 22:35:00,6.5,1.9,29.39,WSW,244,0.0,44.0,81,0.00,,,0.00,Wunderground v.1.13,2013-02-08 07:35:00,
2013-02-07 22:45:00,6.7,2.4,29.39,WSW,244,0.0,44.0,82,0.00,,,0.00,Wunderground v.1.13,2013-02-08 07:45:00,
2013-02-07 22:50:00,6.9,2.6,29.39,WSW,244,0.0,44.0,82,0.00,,,0.00,Wunderground v.1.13,2013-02-08 07:50:00,
2013-02-07 22:55:00,6.9,2.6,29.39,WSW,244,0.0,44.0,82,0.00,,,0.00,Wunderground v.1.13,2013-02-08 07:55:00,